createdAt,value
2019-03-19T00:00:27.315Z,2.95
2019-03-19T00:01:27.144Z,2.85
2019-03-19T00:02:27.116Z,2.81
2019-03-19T00:03:27.074Z,2.71
2019-03-19T00:04:27.149Z,2.71
2019-03-19T00:05:27.015Z,2.71
2019-03-19T00:06:27.154Z,2.81
2019-03-19T00:07:26.957Z,2.88
2019-03-19T00:08:26.927Z,2.92
2019-03-19T00:09:27.076Z,2.89
2019-03-19T00:10:26.864Z,3.02
2019-03-19T00:11:26.986Z,3.10
2019-03-19T00:12:26.805Z,3.10
2019-03-19T00:13:26.776Z,3.12
2019-03-19T00:14:26.735Z,3.10
2019-03-19T00:15:27.849Z,3.15
2019-03-19T00:16:26.687Z,3.15
2019-03-19T00:17:26.825Z,3.13
2019-03-19T00:18:26.617Z,3.10
2019-03-19T00:19:26.584Z,3.12
2019-03-19T00:20:26.744Z,3.15
2019-03-19T00:21:26.518Z,3.16
2019-03-19T00:22:26.668Z,3.09
2019-03-19T00:23:26.453Z,2.97
2019-03-19T00:24:26.425Z,3.00
2019-03-19T00:25:30.252Z,2.92
2019-03-19T00:26:26.477Z,2.91
2019-03-19T00:27:26.337Z,2.85
2019-03-19T00:28:26.505Z,2.82
2019-03-19T00:29:26.267Z,2.71
2019-03-19T00:30:26.233Z,2.71
2019-03-19T00:31:26.205Z,2.82
2019-03-19T00:32:26.321Z,2.84
2019-03-19T00:33:26.187Z,2.85
2019-03-19T00:34:26.230Z,2.76
2019-03-19T00:35:26.074Z,2.85
2019-03-19T00:36:26.260Z,2.85
2019-03-19T00:37:26.016Z,2.71
2019-03-19T00:38:26.154Z,2.74
2019-03-19T00:39:25.954Z,2.70
2019-03-19T00:40:26.064Z,2.71
2019-03-19T00:41:26.074Z,2.77
2019-03-19T00:42:25.862Z,2.61
2019-03-19T00:43:25.982Z,2.71
2019-03-19T00:44:25.792Z,2.82
2019-03-19T00:45:25.904Z,2.89
2019-03-19T00:46:25.732Z,2.91
2019-03-19T00:47:25.704Z,2.92
2019-03-19T00:48:25.818Z,2.84
2019-03-19T00:49:25.643Z,2.89
2019-03-19T00:50:25.824Z,2.97
2019-03-19T00:51:25.584Z,2.98
2019-03-19T00:52:25.543Z,2.98
2019-03-19T00:53:25.514Z,3.00
2019-03-19T00:54:25.554Z,2.95
2019-03-19T00:55:25.453Z,3.00
2019-03-19T00:56:25.464Z,2.91
2019-03-19T00:57:25.395Z,2.89
2019-03-19T00:58:25.365Z,2.85
2019-03-19T00:59:26.409Z,2.95
2019-03-19T01:00:25.294Z,2.95
2019-03-19T01:01:25.293Z,2.95
2019-03-19T01:02:25.243Z,3.02
2019-03-19T01:03:25.210Z,3.12
2019-03-19T01:04:25.171Z,3.10
2019-03-19T01:05:25.213Z,2.97
2019-03-19T01:06:25.116Z,3.00
2019-03-19T01:07:25.135Z,2.97
2019-03-19T01:08:25.045Z,3.03
2019-03-19T01:09:25.011Z,3.03
2019-03-19T01:10:25.043Z,3.02
2019-03-19T01:11:24.943Z,2.97
2019-03-19T01:12:24.968Z,3.05
2019-03-19T01:13:24.886Z,3.06
2019-03-19T01:14:24.977Z,3.10
2019-03-19T01:15:24.825Z,3.13
2019-03-19T01:16:24.883Z,3.10
2019-03-19T01:17:24.765Z,3.16
2019-03-19T01:18:24.808Z,3.12
2019-03-19T01:19:24.693Z,3.13
2019-03-19T01:20:24.662Z,3.10
2019-03-19T01:21:24.646Z,3.10
2019-03-19T01:22:24.723Z,3.00
2019-03-19T01:23:24.573Z,2.95
2019-03-19T01:24:24.634Z,2.95
2019-03-19T01:25:24.513Z,3.02
2019-03-19T01:26:24.488Z,2.91
2019-03-19T01:27:24.554Z,2.88
2019-03-19T01:28:24.428Z,2.89
2019-03-19T01:29:24.463Z,2.81
2019-03-19T01:30:24.344Z,2.71
2019-03-19T01:31:24.313Z,2.73
2019-03-19T01:32:24.282Z,2.63
2019-03-19T01:33:24.394Z,2.59
2019-03-19T01:34:24.223Z,2.59
2019-03-19T01:35:24.304Z,2.56
2019-03-19T01:36:24.163Z,2.58
2019-03-19T01:37:24.134Z,2.55
2019-03-19T01:38:24.223Z,2.56
2019-03-19T01:39:24.063Z,2.56
2019-03-19T01:40:24.146Z,2.58
2019-03-19T01:41:24.007Z,2.59
2019-03-19T01:42:23.964Z,2.53
2019-03-19T01:43:23.954Z,2.52
2019-03-19T01:44:24.061Z,2.52
2019-03-19T01:45:23.873Z,2.55
2019-03-19T01:46:23.971Z,2.63
2019-03-19T01:47:23.816Z,2.58
2019-03-19T01:48:23.783Z,2.53
2019-03-19T01:49:24.814Z,2.49
2019-03-19T01:50:23.713Z,2.49
2019-03-19T01:51:23.802Z,2.51
2019-03-19T01:52:23.654Z,2.52
2019-03-19T01:53:23.630Z,2.53
2019-03-19T01:54:23.594Z,2.58
2019-03-19T01:55:25.508Z,2.56
2019-03-19T01:56:23.532Z,2.56
2019-03-19T01:57:23.642Z,2.56
2019-03-19T01:58:23.466Z,2.61
2019-03-19T01:59:23.432Z,2.58
2019-03-19T02:00:23.395Z,2.67
2019-03-19T02:01:23.466Z,2.59
2019-03-19T02:02:23.332Z,2.66
2019-03-19T02:03:24.407Z,2.70
2019-03-19T02:04:23.273Z,2.69
2019-03-19T02:05:23.410Z,2.67
2019-03-19T02:06:23.211Z,2.69
2019-03-19T02:07:23.304Z,2.74
2019-03-19T02:08:23.154Z,2.69
2019-03-19T02:09:23.215Z,2.61
2019-03-19T02:10:23.222Z,2.69
2019-03-19T02:11:23.120Z,2.69
2019-03-19T02:12:23.139Z,2.69
2019-03-19T02:13:22.983Z,2.67
2019-03-19T02:14:23.044Z,2.66
2019-03-19T02:15:22.924Z,2.67
2019-03-19T02:16:22.893Z,2.67
2019-03-19T02:17:22.966Z,2.66
2019-03-19T02:18:22.837Z,2.67
2019-03-19T02:19:22.973Z,2.67
2019-03-19T02:20:22.774Z,2.69
2019-03-19T02:21:22.734Z,2.67
2019-03-19T02:22:22.707Z,2.67
2019-03-19T02:23:22.802Z,2.67
2019-03-19T02:24:22.634Z,2.61
2019-03-19T02:25:22.714Z,2.67
2019-03-19T02:26:22.573Z,2.64
2019-03-19T02:27:29.901Z,2.63
2019-03-19T02:29:26.643Z,2.61
2019-03-19T02:30:26.535Z,2.58
2019-03-19T02:32:30.494Z,2.64
2019-03-19T02:33:30.441Z,2.61
2019-03-19T02:35:34.471Z,2.71
2019-03-19T02:36:34.352Z,2.64
2019-03-19T02:38:38.378Z,2.61
2019-03-19T02:39:38.265Z,2.64
2019-03-19T02:41:42.283Z,2.44
2019-03-19T02:42:42.178Z,2.38
2019-03-19T02:44:46.194Z,2.34
2019-03-19T02:45:46.088Z,2.45
2019-03-19T02:47:50.091Z,2.33
2019-03-19T02:48:49.992Z,2.31
2019-03-19T02:50:54.004Z,2.35
2019-03-19T02:51:53.905Z,2.26
2019-03-19T02:53:57.913Z,2.20
2019-03-19T02:54:57.893Z,2.08
2019-03-19T02:57:01.822Z,2.10
2019-03-19T02:58:01.723Z,2.10
2019-03-19T03:00:05.749Z,2.16
2019-03-19T03:01:05.633Z,2.15
2019-03-19T03:03:09.641Z,2.16
2019-03-19T03:04:09.547Z,2.12
2019-03-19T03:06:02.443Z,2.04
2019-03-19T03:07:02.413Z,2.04
2019-03-19T03:09:06.404Z,2.04
2019-03-19T03:10:06.303Z,1.98
2019-03-19T03:12:10.355Z,1.94
2019-03-19T03:13:10.222Z,1.94
2019-03-19T03:15:14.262Z,1.94
2019-03-19T03:16:14.124Z,1.87
2019-03-19T03:18:18.145Z,1.87
2019-03-19T03:19:18.039Z,1.89
2019-03-19T03:21:22.059Z,1.73
2019-03-19T03:22:21.941Z,1.76
2019-03-19T03:24:25.955Z,1.73
2019-03-19T03:25:25.873Z,1.75
2019-03-19T03:27:29.888Z,1.72
2019-03-19T03:28:29.832Z,1.75
2019-03-19T03:30:33.806Z,1.69
2019-03-19T03:31:33.679Z,1.69
2019-03-19T03:33:37.685Z,1.72
2019-03-19T03:34:37.583Z,1.64
2019-03-19T03:36:30.531Z,1.69
2019-03-19T03:37:30.432Z,1.68
2019-03-19T03:39:34.442Z,1.65
2019-03-19T03:40:34.343Z,1.68
2019-03-19T03:42:38.360Z,1.65
2019-03-19T03:43:38.252Z,1.64
2019-03-19T03:45:42.272Z,1.68
2019-03-19T03:46:42.173Z,1.71
2019-03-19T03:48:46.172Z,1.72
2019-03-19T03:49:46.096Z,1.76
2019-03-19T03:51:50.082Z,1.75
2019-03-19T03:52:49.984Z,1.71
2019-03-19T03:54:54.024Z,1.68
2019-03-19T03:55:53.892Z,1.76
2019-03-19T03:57:57.910Z,1.79
2019-03-19T03:59:00.921Z,1.76
2019-03-19T04:01:01.819Z,1.78
2019-03-19T04:02:01.711Z,1.68
2019-03-19T04:04:05.745Z,1.69
2019-03-19T04:05:05.623Z,1.65
2019-03-19T04:07:09.639Z,1.61
2019-03-19T04:08:09.532Z,1.71
2019-03-19T04:10:13.552Z,1.65
2019-03-19T04:11:13.461Z,1.60
2019-03-19T04:13:17.420Z,1.68
2019-03-19T04:14:17.423Z,1.62
2019-03-19T04:16:10.322Z,1.60
2019-03-19T04:17:10.224Z,1.62
2019-03-19T04:19:15.140Z,1.64
2019-03-19T04:20:15.048Z,1.64
2019-03-19T04:22:19.056Z,1.62
2019-03-19T04:23:18.942Z,1.72
2019-03-19T04:25:22.962Z,1.68
2019-03-19T04:26:22.863Z,1.64
2019-03-19T04:28:26.871Z,1.75
2019-03-19T04:29:26.761Z,1.62
2019-03-19T04:31:30.792Z,1.64
2019-03-19T04:32:30.671Z,1.65
2019-03-19T04:34:34.683Z,1.68
2019-03-19T04:35:34.580Z,1.65
2019-03-19T04:37:38.601Z,1.64
2019-03-19T04:38:38.504Z,1.61
2019-03-19T04:40:42.526Z,1.65
2019-03-19T04:41:42.404Z,1.69
2019-03-19T04:43:46.455Z,1.68
2019-03-19T04:44:46.314Z,1.61
2019-03-19T04:46:39.199Z,1.65
2019-03-19T04:47:39.241Z,1.62
2019-03-19T04:49:43.182Z,1.68
2019-03-19T04:50:43.090Z,1.65
2019-03-19T04:52:47.094Z,1.68
2019-03-19T04:53:46.992Z,1.71
2019-03-19T04:55:51.000Z,1.65
2019-03-19T04:56:50.910Z,1.69
2019-03-19T04:58:54.912Z,1.72
2019-03-19T04:59:54.813Z,1.72
2019-03-19T05:00:54.902Z,1.69
2019-03-19T05:01:54.749Z,1.69
2019-03-19T05:02:54.801Z,1.73
2019-03-19T05:03:54.697Z,1.65
2019-03-19T05:04:54.717Z,1.64
2019-03-19T05:05:54.604Z,1.73
2019-03-19T05:06:54.624Z,1.65
2019-03-19T05:07:54.552Z,1.75
2019-03-19T05:08:54.521Z,1.73
2019-03-19T05:09:54.478Z,1.68
2019-03-19T05:10:54.554Z,1.80
2019-03-19T05:11:54.433Z,1.75
2019-03-19T05:12:54.458Z,1.80
2019-03-19T05:13:54.350Z,1.89
2019-03-19T05:14:54.332Z,1.90
2019-03-19T05:15:54.370Z,1.90
2019-03-19T05:16:54.251Z,1.87
2019-03-19T05:17:54.314Z,1.98
2019-03-19T05:18:54.192Z,1.97
2019-03-19T05:19:54.149Z,1.94
2019-03-19T05:20:54.121Z,1.98
2019-03-19T05:21:54.200Z,1.93
2019-03-19T05:22:54.061Z,1.98
2019-03-19T05:23:54.111Z,1.94
2019-03-19T05:24:53.991Z,1.94
2019-03-19T05:25:53.959Z,1.89
2019-03-19T05:26:54.024Z,1.93
2019-03-19T05:27:53.891Z,1.91
2019-03-19T05:28:53.929Z,1.91
2019-03-19T05:29:53.833Z,1.91
2019-03-19T05:30:53.808Z,1.89
2019-03-19T05:31:53.772Z,1.87
2019-03-19T05:32:53.762Z,1.90
2019-03-19T05:33:53.705Z,1.94
2019-03-19T05:34:53.774Z,1.91
2019-03-19T05:35:53.638Z,1.90
2019-03-19T05:36:53.612Z,1.87
2019-03-19T05:37:53.681Z,1.87
2019-03-19T05:38:53.542Z,1.87
2019-03-19T05:39:53.602Z,1.90
2019-03-19T05:40:53.481Z,1.89
2019-03-19T05:41:53.503Z,1.91
2019-03-19T05:42:53.405Z,1.93
2019-03-19T05:43:53.411Z,1.87
2019-03-19T05:44:53.351Z,1.87
2019-03-19T05:45:53.477Z,1.87
2019-03-19T05:46:53.269Z,1.90
2019-03-19T05:47:53.256Z,1.91
2019-03-19T05:48:53.210Z,1.87
2019-03-19T05:49:53.252Z,1.87
2019-03-19T05:50:53.140Z,1.87
2019-03-19T05:51:53.174Z,1.93
2019-03-19T05:52:53.082Z,1.82
2019-03-19T05:53:53.066Z,1.90
2019-03-19T05:54:53.071Z,1.71
2019-03-19T05:55:52.979Z,1.79
2019-03-19T05:56:52.983Z,1.72
2019-03-19T05:57:52.919Z,1.79
2019-03-19T05:58:52.912Z,1.71
2019-03-19T05:59:52.855Z,1.76
2019-03-19T06:00:52.907Z,1.76
2019-03-19T06:01:52.790Z,1.80
2019-03-19T06:02:52.832Z,1.71
2019-03-19T06:03:52.723Z,1.80
2019-03-19T06:04:52.713Z,1.76
2019-03-19T06:05:52.732Z,1.72
2019-03-19T06:06:52.621Z,1.71
2019-03-19T06:07:52.642Z,1.78
2019-03-19T06:08:52.572Z,1.78
2019-03-19T06:09:52.532Z,1.75
2019-03-19T06:10:52.491Z,1.80
2019-03-19T06:11:52.562Z,1.76
2019-03-19T06:12:52.429Z,1.80
2019-03-19T06:13:52.482Z,1.83
2019-03-19T06:14:52.394Z,1.83
2019-03-19T06:15:52.333Z,1.76
2019-03-19T06:16:52.392Z,1.85
2019-03-19T06:17:52.277Z,1.91
2019-03-19T06:18:52.305Z,1.90
2019-03-19T06:19:52.209Z,1.91
2019-03-19T06:20:52.211Z,1.89
2019-03-19T06:21:52.153Z,1.85
2019-03-19T06:22:52.119Z,1.90
2019-03-19T06:23:52.074Z,1.83
2019-03-19T06:24:52.141Z,1.94
2019-03-19T06:25:52.011Z,1.85
2019-03-19T06:26:51.974Z,1.89
2019-03-19T06:27:59.968Z,1.89
2019-03-19T06:28:51.951Z,1.89
2019-03-19T06:29:51.875Z,1.91
2019-03-19T06:30:51.863Z,1.94
2019-03-19T06:31:51.822Z,1.87
2019-03-19T06:32:51.882Z,1.91
2019-03-19T06:33:51.743Z,1.99
2019-03-19T06:34:51.790Z,1.99
2019-03-19T06:35:51.682Z,2.06
2019-03-19T06:36:51.705Z,2.09
2019-03-19T06:37:51.701Z,2.16
2019-03-19T06:38:51.583Z,2.17
2019-03-19T06:39:51.617Z,2.26
2019-03-19T06:40:51.522Z,2.16
2019-03-19T06:41:51.531Z,2.22
2019-03-19T06:42:51.453Z,2.26
2019-03-19T06:43:51.432Z,2.30
2019-03-19T06:44:51.461Z,2.41
2019-03-19T06:45:51.360Z,2.41
2019-03-19T06:46:51.353Z,2.44
2019-03-19T06:47:51.305Z,2.46
2019-03-19T06:48:51.263Z,2.40
2019-03-19T06:49:51.230Z,2.35
2019-03-19T06:50:51.285Z,2.37
2019-03-19T06:51:51.165Z,2.35
2019-03-19T06:52:51.183Z,2.53
2019-03-19T06:53:51.113Z,2.59
2019-03-19T06:54:51.074Z,2.56
2019-03-19T06:55:51.041Z,2.63
2019-03-19T06:56:51.113Z,2.67
2019-03-19T06:57:50.974Z,2.70
2019-03-19T06:58:51.023Z,2.77
2019-03-19T06:59:50.903Z,2.74
2019-03-19T07:00:50.933Z,2.79
2019-03-19T07:01:50.840Z,2.85
2019-03-19T07:02:50.841Z,2.91
2019-03-19T07:03:50.782Z,2.92
2019-03-19T07:04:50.858Z,2.94
2019-03-19T07:05:50.714Z,2.94
2019-03-19T07:06:50.863Z,2.98
2019-03-19T07:07:50.641Z,2.98
2019-03-19T07:08:50.772Z,2.98
2019-03-19T07:09:50.582Z,2.98
2019-03-19T07:10:50.692Z,3.00
2019-03-19T07:11:50.523Z,3.05
2019-03-19T07:12:50.708Z,3.10
2019-03-19T07:13:50.456Z,3.15
2019-03-19T07:14:50.531Z,3.15
2019-03-19T07:15:50.392Z,3.20
2019-03-19T07:16:50.369Z,3.28
2019-03-19T07:17:50.323Z,3.30
2019-03-19T07:18:50.330Z,3.31
2019-03-19T07:19:50.273Z,3.40
2019-03-19T07:20:50.361Z,3.44
2019-03-19T07:21:50.214Z,3.43
2019-03-19T07:22:50.181Z,3.52
2019-03-19T07:23:50.270Z,3.61
2019-03-19T07:24:50.103Z,3.64
2019-03-19T07:25:50.205Z,3.65
2019-03-19T07:26:50.057Z,3.67
2019-03-19T07:27:50.013Z,3.76
2019-03-19T07:28:49.973Z,3.75
2019-03-19T07:29:50.003Z,3.85
2019-03-19T07:30:49.911Z,3.83
2019-03-19T07:31:50.015Z,3.94
2019-03-19T07:32:49.856Z,4.00
2019-03-19T07:33:49.829Z,3.92
2019-03-19T07:34:49.832Z,4.03
2019-03-19T07:35:49.760Z,4.12
2019-03-19T07:36:49.851Z,4.03
2019-03-19T07:37:49.696Z,4.04
2019-03-19T07:38:49.660Z,4.08
2019-03-19T07:39:49.632Z,4.15
2019-03-19T07:40:49.682Z,4.18
2019-03-19T07:41:49.562Z,4.19
2019-03-19T07:42:49.585Z,4.32
2019-03-19T07:43:49.503Z,4.36
2019-03-19T07:44:49.471Z,4.37
2019-03-19T07:45:49.464Z,4.33
2019-03-19T07:46:49.513Z,4.33
2019-03-19T07:47:49.373Z,4.52
2019-03-19T07:48:49.421Z,4.51
2019-03-19T07:49:49.311Z,4.58
2019-03-19T07:50:49.340Z,4.54
2019-03-19T07:51:49.244Z,4.59
2019-03-19T07:52:49.344Z,4.61
2019-03-19T07:53:49.180Z,4.59
2019-03-19T07:54:49.261Z,4.72
2019-03-19T07:55:49.161Z,4.79
2019-03-19T07:56:49.078Z,4.72
2019-03-19T07:57:49.171Z,4.73
2019-03-19T07:58:49.038Z,4.77
2019-03-19T07:59:49.092Z,4.77
2019-03-19T08:00:48.970Z,4.80
2019-03-19T08:01:49.006Z,4.91
2019-03-19T08:02:48.914Z,4.91
2019-03-19T08:03:49.010Z,4.96
2019-03-19T08:04:48.852Z,5.02
2019-03-19T08:05:48.936Z,5.01
2019-03-19T08:06:48.940Z,5.05
2019-03-19T08:07:48.741Z,5.04
2019-03-19T08:08:48.853Z,5.13
2019-03-19T08:09:48.685Z,5.19
2019-03-19T08:10:48.770Z,5.14
2019-03-19T08:11:48.635Z,5.22
2019-03-19T08:12:48.581Z,5.32
2019-03-19T08:13:48.670Z,5.31
2019-03-19T08:14:48.521Z,5.35
2019-03-19T08:15:48.582Z,5.38
2019-03-19T08:16:48.465Z,5.46
2019-03-19T08:17:48.437Z,5.38
2019-03-19T08:18:48.400Z,5.48
2019-03-19T08:19:48.514Z,5.53
2019-03-19T08:20:48.341Z,5.55
2019-03-19T08:21:48.422Z,5.57
2019-03-19T08:22:48.271Z,5.57
2019-03-19T08:23:48.240Z,5.66
2019-03-19T08:24:48.340Z,5.74
2019-03-19T08:25:48.185Z,5.75
2019-03-19T08:26:49.165Z,5.81
2019-03-19T08:27:55.450Z,5.82
2019-03-19T08:29:52.181Z,5.93
2019-03-19T08:30:52.081Z,5.96
2019-03-19T08:32:56.201Z,6.06
2019-03-19T08:33:56.102Z,6.09
2019-03-19T08:35:49.053Z,6.18
2019-03-19T08:36:48.940Z,6.29
2019-03-19T08:38:52.962Z,6.32
2019-03-19T08:39:52.852Z,6.35
2019-03-19T08:41:56.883Z,6.40
2019-03-19T08:42:58.326Z,6.56
2019-03-19T08:45:00.781Z,6.59
2019-03-19T08:46:00.682Z,6.61
2019-03-19T08:48:04.693Z,6.68
2019-03-19T08:49:04.593Z,6.79
2019-03-19T08:51:08.549Z,6.72
2019-03-19T08:52:08.504Z,6.86
2019-03-19T08:54:12.528Z,6.89
2019-03-19T08:55:12.461Z,6.94
2019-03-19T08:57:16.373Z,7.08
2019-03-19T08:58:16.400Z,7.08
2019-03-19T09:00:20.353Z,7.16
2019-03-19T09:01:20.264Z,7.19
2019-03-19T09:03:24.273Z,7.27
2019-03-19T09:04:24.161Z,7.24
2019-03-19T09:06:17.121Z,7.38
2019-03-19T09:07:17.016Z,7.34
2019-03-19T09:09:21.034Z,7.42
2019-03-19T09:10:20.943Z,7.56
2019-03-19T09:12:24.941Z,7.56
2019-03-19T09:13:24.855Z,7.78
2019-03-19T09:15:28.791Z,7.85
2019-03-19T09:16:28.821Z,7.89
2019-03-19T09:18:21.926Z,8.04
2019-03-19T09:19:21.802Z,8.18
2019-03-19T09:21:25.831Z,8.48
2019-03-19T09:22:29.534Z,8.54
2019-03-19T09:24:30.714Z,9.10
2019-03-19T09:25:30.562Z,9.57
2019-03-19T09:27:34.572Z,10.71
2019-03-19T09:28:34.489Z,11.21
2019-03-19T09:30:38.426Z,12.45
2019-03-19T09:31:38.482Z,12.95
2019-03-19T09:33:42.403Z,13.76
2019-03-19T09:34:42.296Z,14.13
2019-03-19T09:36:35.256Z,14.84
2019-03-19T09:37:35.164Z,15.19
2019-03-19T09:39:39.164Z,15.43
2019-03-19T09:40:39.063Z,15.70
2019-03-19T09:42:43.073Z,15.88
2019-03-19T09:43:42.975Z,16.18
2019-03-19T09:45:46.983Z,16.50
2019-03-19T09:46:46.893Z,16.38
2019-03-19T09:48:50.900Z,16.34
2019-03-19T09:49:50.801Z,16.62
2019-03-19T09:51:54.911Z,16.65
2019-03-19T09:52:54.883Z,16.78
2019-03-19T09:54:59.034Z,17.40
2019-03-19T09:55:58.895Z,17.55
2019-03-19T09:58:02.897Z,17.71
2019-03-19T09:59:02.843Z,17.88
2019-03-19T10:01:06.852Z,17.13
2019-03-19T10:02:06.766Z,17.13
2019-03-19T10:04:10.875Z,18.10
2019-03-19T10:05:10.775Z,18.55
2019-03-19T10:07:14.795Z,19.02
2019-03-19T10:08:14.682Z,18.80
2019-03-19T10:10:18.701Z,19.01
2019-03-19T10:11:18.603Z,19.32
2019-03-19T10:13:22.713Z,18.86
2019-03-19T10:14:22.672Z,19.02
2019-03-19T10:16:15.562Z,19.23
2019-03-19T10:17:15.483Z,19.08
2019-03-19T10:19:19.572Z,19.02
2019-03-19T10:20:19.481Z,19.17
2019-03-19T10:22:24.415Z,19.60
2019-03-19T10:23:24.319Z,19.55
2019-03-19T10:25:28.424Z,19.57
2019-03-19T10:26:28.332Z,19.63
2019-03-19T10:28:33.262Z,20.12
2019-03-19T10:29:38.225Z,19.53
2019-03-19T10:31:37.275Z,19.15
2019-03-19T10:32:37.175Z,19.39
2019-03-19T10:34:41.234Z,20.08
2019-03-19T10:35:41.259Z,20.68
2019-03-19T10:37:45.204Z,21.14
2019-03-19T10:38:45.112Z,21.30
2019-03-19T10:40:50.033Z,21.01
2019-03-19T10:41:49.942Z,21.72
2019-03-19T10:43:54.051Z,22.46
2019-03-19T10:44:53.968Z,22.50
2019-03-19T10:46:58.003Z,22.49
2019-03-19T10:47:57.971Z,22.47
2019-03-19T10:50:02.926Z,22.38
2019-03-19T10:51:02.817Z,22.20
2019-03-19T10:53:07.732Z,22.09
2019-03-19T10:54:07.652Z,21.91
2019-03-19T10:56:00.701Z,21.45
2019-03-19T10:57:00.601Z,21.16
2019-03-19T10:59:05.523Z,21.19
2019-03-19T11:00:05.432Z,21.78
2019-03-19T11:02:10.356Z,21.97
2019-03-19T11:03:10.336Z,22.04
2019-03-19T11:05:15.190Z,22.53
2019-03-19T11:06:15.104Z,22.71
2019-03-19T11:08:19.204Z,22.25
2019-03-19T11:09:19.114Z,22.31
2019-03-19T11:11:23.222Z,22.62
2019-03-19T11:12:23.133Z,22.77
2019-03-19T11:14:28.000Z,21.76
2019-03-19T11:15:28.021Z,21.30
2019-03-19T11:17:32.075Z,20.93
2019-03-19T11:18:31.987Z,21.17
2019-03-19T11:20:36.081Z,22.02
2019-03-19T11:21:36.002Z,22.28
2019-03-19T11:23:40.105Z,22.57
2019-03-19T11:24:40.011Z,22.54
2019-03-19T11:26:33.016Z,22.44
2019-03-19T11:27:33.023Z,22.59
2019-03-19T11:29:37.897Z,22.65
2019-03-19T11:30:37.862Z,22.39
2019-03-19T11:32:41.913Z,22.56
2019-03-19T11:33:41.815Z,22.50
2019-03-19T11:35:45.871Z,21.01
2019-03-19T11:36:45.848Z,20.99
2019-03-19T11:38:49.935Z,21.06
2019-03-19T11:39:49.846Z,20.74
2019-03-19T11:41:53.956Z,20.62
2019-03-19T11:42:53.864Z,20.87
2019-03-19T11:44:58.792Z,20.95
2019-03-19T11:45:58.692Z,20.62
2019-03-19T11:48:02.805Z,21.24
2019-03-19T11:49:02.711Z,21.83
2019-03-19T11:51:07.635Z,22.07
2019-03-19T11:52:07.600Z,21.57
2019-03-19T11:54:11.653Z,19.80
2019-03-19T11:55:11.553Z,18.99
2019-03-19T11:57:16.423Z,18.36
2019-03-19T11:58:16.392Z,18.10
2019-03-19T12:00:21.323Z,17.63
2019-03-19T12:01:21.222Z,17.08
2019-03-19T12:03:25.262Z,17.44
2019-03-19T12:04:25.326Z,17.67
2019-03-19T12:06:18.292Z,18.18
2019-03-19T12:07:18.197Z,18.42
2019-03-19T12:09:22.296Z,18.29
2019-03-19T12:10:22.205Z,18.58
2019-03-19T12:12:27.134Z,19.01
2019-03-19T12:13:27.044Z,19.39
2019-03-19T12:15:31.151Z,19.65
2019-03-19T12:16:31.065Z,19.08
2019-03-19T12:18:35.162Z,18.55
2019-03-19T12:19:35.084Z,18.64
2019-03-19T12:21:39.170Z,18.76
2019-03-19T12:22:39.092Z,19.17
2019-03-19T12:24:43.180Z,19.29
2019-03-19T12:25:43.102Z,19.10
2019-03-19T12:27:48.031Z,19.36
2019-03-19T12:28:47.942Z,19.39
2019-03-19T12:30:52.052Z,19.14
2019-03-19T12:31:51.953Z,18.95
2019-03-19T12:33:56.053Z,18.43
2019-03-19T12:34:55.972Z,18.27
2019-03-19T12:37:00.076Z,17.81
2019-03-19T12:37:59.981Z,17.70
2019-03-19T12:40:04.091Z,17.32
2019-03-19T12:41:03.999Z,16.92
2019-03-19T12:43:08.100Z,15.94
2019-03-19T12:44:08.017Z,15.92
2019-03-19T12:46:01.063Z,15.86
2019-03-19T12:47:00.963Z,16.00
2019-03-19T12:49:05.084Z,16.03
2019-03-19T12:50:04.983Z,15.92
2019-03-19T12:52:09.091Z,15.85
2019-03-19T12:53:09.075Z,15.72
2019-03-19T12:55:13.112Z,15.75
2019-03-19T12:56:13.013Z,15.97
2019-03-19T12:58:17.069Z,16.16
2019-03-19T12:59:20.502Z,16.34
2019-03-19T13:01:21.259Z,16.41
2019-03-19T13:02:21.041Z,16.55
2019-03-19T13:04:25.140Z,16.60
2019-03-19T13:05:25.052Z,16.50
2019-03-19T13:07:29.979Z,16.07
2019-03-19T13:08:29.884Z,15.85
2019-03-19T13:10:34.815Z,15.52
2019-03-19T13:11:34.721Z,15.45
2019-03-19T13:13:40.973Z,15.35
2019-03-19T13:14:39.608Z,15.13
2019-03-19T13:16:32.510Z,14.86
2019-03-19T13:17:32.410Z,14.75
2019-03-19T13:19:36.521Z,14.60
2019-03-19T13:20:36.420Z,14.62
2019-03-19T13:22:40.474Z,14.65
2019-03-19T13:23:40.439Z,14.54
2019-03-19T13:25:44.396Z,14.27
2019-03-19T13:26:44.351Z,14.13
2019-03-19T13:27:44.423Z,14.12
2019-03-19T13:28:44.315Z,14.10
2019-03-19T13:29:44.334Z,14.09
2019-03-19T13:30:45.511Z,14.17
2019-03-19T13:31:44.252Z,14.14
2019-03-19T13:32:44.247Z,14.02
2019-03-19T13:33:44.191Z,14.14
2019-03-19T13:34:44.274Z,14.10
2019-03-19T13:35:44.151Z,13.96
2019-03-19T13:36:44.130Z,14.01
2019-03-19T13:37:44.114Z,13.91
2019-03-19T13:38:44.191Z,13.80
2019-03-19T13:39:44.061Z,13.83
2019-03-19T13:40:44.103Z,13.81
2019-03-19T13:41:44.021Z,13.77
2019-03-19T13:42:43.991Z,13.84
2019-03-19T13:43:44.032Z,13.88
2019-03-19T13:44:43.952Z,13.81
2019-03-19T13:45:44.044Z,13.81
2019-03-19T13:46:43.901Z,13.95
2019-03-19T13:47:43.881Z,13.96
2019-03-19T13:48:43.872Z,14.13
2019-03-19T13:49:43.860Z,14.19
2019-03-19T13:50:43.831Z,14.27
2019-03-19T13:51:43.881Z,14.32
2019-03-19T13:52:43.772Z,14.50
2019-03-19T13:53:43.744Z,14.37
2019-03-19T13:54:43.720Z,14.27
2019-03-19T13:55:43.800Z,14.27
2019-03-19T13:56:43.732Z,14.34
2019-03-19T13:57:43.721Z,14.25
2019-03-19T13:58:43.669Z,14.21
2019-03-19T13:59:43.621Z,14.35
2019-03-19T14:00:43.737Z,14.20
2019-03-19T14:01:43.559Z,14.19
2019-03-19T14:02:43.656Z,14.28
2019-03-19T14:03:43.520Z,14.31
2019-03-19T14:04:43.537Z,14.31
2019-03-19T14:05:43.472Z,14.44
2019-03-19T14:06:43.570Z,14.42
2019-03-19T14:07:43.420Z,14.53
2019-03-19T14:08:43.502Z,14.67
2019-03-19T14:09:43.416Z,14.84
2019-03-19T14:10:43.363Z,15.08
2019-03-19T14:11:43.331Z,15.11
2019-03-19T14:12:43.415Z,14.95
2019-03-19T14:13:43.278Z,14.98
2019-03-19T14:14:43.318Z,14.86
2019-03-19T14:15:43.249Z,14.88
2019-03-19T14:16:43.221Z,14.61
2019-03-19T14:17:43.281Z,14.49
2019-03-19T14:18:43.170Z,14.27
2019-03-19T14:19:43.250Z,14.27
2019-03-19T14:20:43.130Z,14.07
2019-03-19T14:21:43.104Z,14.16
2019-03-19T14:22:45.182Z,14.14
2019-03-19T14:23:43.086Z,14.10
2019-03-19T14:24:43.030Z,14.10
2019-03-19T14:25:43.091Z,13.98
2019-03-19T14:26:42.991Z,14.06
2019-03-19T14:27:42.963Z,14.07
2019-03-19T14:28:43.013Z,14.19
2019-03-19T14:29:42.912Z,14.19
2019-03-19T14:30:42.941Z,14.21
2019-03-19T14:31:42.874Z,14.21
2019-03-19T14:32:42.930Z,14.19
2019-03-19T14:33:42.819Z,14.16
2019-03-19T14:34:42.852Z,14.13
2019-03-19T14:35:42.780Z,13.96
2019-03-19T14:36:42.860Z,13.88
2019-03-19T14:37:42.729Z,13.76
2019-03-19T14:38:47.136Z,13.63
2019-03-19T14:39:42.782Z,13.69
2019-03-19T14:40:42.660Z,13.73
2019-03-19T14:41:42.690Z,13.52
2019-03-19T14:42:42.611Z,13.49
2019-03-19T14:43:42.701Z,13.51
2019-03-19T14:44:42.574Z,13.55
2019-03-19T14:45:42.625Z,13.43
2019-03-19T14:46:42.520Z,13.33
2019-03-19T14:47:42.531Z,13.27
2019-03-19T14:48:42.474Z,13.18
2019-03-19T14:49:46.541Z,13.14
2019-03-19T14:50:42.441Z,13.06
2019-03-19T14:51:42.454Z,12.95
2019-03-19T14:52:43.938Z,12.89
2019-03-19T14:53:42.471Z,12.74
2019-03-19T14:54:42.331Z,12.67
2019-03-19T14:55:42.331Z,12.69
2019-03-19T14:56:42.414Z,12.62
2019-03-19T14:57:42.274Z,12.67
2019-03-19T14:58:42.302Z,12.70
2019-03-19T14:59:42.221Z,12.70
2019-03-19T15:00:42.196Z,12.69
2019-03-19T15:01:42.172Z,12.67
2019-03-19T15:02:42.232Z,12.60
2019-03-19T15:03:42.120Z,12.54
2019-03-19T15:04:42.140Z,12.44
2019-03-19T15:05:42.070Z,12.46
2019-03-19T15:06:42.052Z,12.48
2019-03-19T15:07:42.052Z,12.52
2019-03-19T15:08:42.000Z,12.41
2019-03-19T15:09:42.073Z,12.44
2019-03-19T15:10:41.982Z,12.41
2019-03-19T15:11:41.958Z,12.41
2019-03-19T15:12:41.911Z,12.45
2019-03-19T15:13:41.895Z,12.42
2019-03-19T15:14:41.860Z,12.41
2019-03-19T15:15:41.912Z,12.42
2019-03-19T15:16:41.813Z,12.46
2019-03-19T15:17:41.824Z,12.42
2019-03-19T15:18:41.761Z,12.46
2019-03-19T15:19:41.833Z,12.41
2019-03-19T15:20:41.711Z,12.45
2019-03-19T15:21:41.741Z,12.52
2019-03-19T15:22:41.761Z,12.46
2019-03-19T15:23:41.644Z,12.45
2019-03-19T15:24:41.663Z,12.45
2019-03-19T15:25:41.591Z,12.46
2019-03-19T15:26:41.680Z,12.42
2019-03-19T15:27:41.583Z,12.42
2019-03-19T15:28:41.514Z,12.46
2019-03-19T15:29:41.602Z,12.33
2019-03-19T15:30:41.486Z,12.19
2019-03-19T15:31:41.510Z,12.19
2019-03-19T15:32:41.447Z,12.21
2019-03-19T15:33:41.392Z,12.15
2019-03-19T15:34:41.433Z,12.20
2019-03-19T15:35:41.367Z,12.26
2019-03-19T15:36:41.342Z,12.29
2019-03-19T15:37:41.310Z,12.16
2019-03-19T15:38:41.273Z,12.29
2019-03-19T15:39:41.251Z,12.19
2019-03-19T15:40:41.264Z,12.20
2019-03-19T15:41:41.213Z,12.16
2019-03-19T15:42:41.281Z,12.15
2019-03-19T15:43:41.150Z,12.11